Terminal Aerodrome Forecast
Issued by NWS

Home | Current Version | Previous Version | Text Only | Print | Product List | Glossary On
Versions: 1 2 3 4 5 6 7 8 9 10 11 12 13 14 15 16 17 18 19 20 21 22 23 24 25 26 27 28 29 30
000
FTUS42 KGSP 231129
TAFHKY
TAF
KHKY 231129Z 2312/2412 08008KT P6SM -SHRA OVC035
     FM231300 07011G18KT 4SM SHRA BR OVC015
     FM231430 07012G19KT 3SM +SHRA BR OVC007
     FM232100 08013G21KT 2SM +SHRA BR OVC005
     FM240300 07014G24KT 3SM SHRA BR OVC004
     FM240900 07012G20KT 4SM -SHRA OVC003=

USA.gov is the U.S. government's official web portal to all federal, state and local government web resources and services.